Time;durP1;ratioP1;P1;durP2;ratioP2;P2;SDS_P1;SDS_P2;PMS_P1;PMS_P2;Temp;Humidity;BMP_temperature;BMP_pressure;BME280_temperature;BME280_humidity;BME280_pressure;Samples;Min_cycle;Max_cycle;Signal;HPM_P1;HPM_P2
2021/03/10 00:00:06;;;;;;;27.85;10.93;;;;;;;-2.80;47.75;101215.25;1723141;83;21192;-58
2021/03/10 00:02:37;;;;;;;50.60;16.15;;;;;;;-2.83;48.02;101215.43;1723238;82;21407;-58
2021/03/10 00:05:06;;;;;;;38.23;11.38;;;;;;;-2.85;48.07;101212.84;1723113;83;22004;-58
2021/03/10 00:07:33;;;;;;;41.13;13.20;;;;;;;-2.85;47.96;101210.16;1723294;83;21541;-58
2021/03/10 00:10:01;;;;;;;39.23;11.08;;;;;;;-2.88;47.92;101211.20;1723107;83;21420;-59
2021/03/10 00:12:28;;;;;;;48.38;14.53;;;;;;;-2.86;47.78;101213.80;1723161;82;21165;-58
2021/03/10 00:14:55;;;;;;;78.75;20.72;;;;;;;-2.88;47.65;101211.20;1723143;83;21530;-57
2021/03/10 00:17:23;;;;;;;71.45;23.18;;;;;;;-2.90;47.43;101208.23;1721701;83;21912;-58
2021/03/10 00:19:52;;;;;;;69.22;19.52;;;;;;;-2.91;47.34;101207.38;1714951;82;21400;-57
2021/03/10 00:22:20;;;;;;;65.00;18.70;;;;;;;-2.92;47.24;101206.98;1714880;83;21551;-58
2021/03/10 00:24:48;;;;;;;43.60;12.73;;;;;;;-2.94;47.38;101210.23;1714923;83;21185;-57
2021/03/10 00:27:24;;;;;;;32.60;8.93;;;;;;;-2.95;47.43;101206.30;1714889;83;21154;-57
2021/03/10 00:29:53;;;;;;;41.60;12.45;;;;;;;-2.99;47.57;101211.47;1715064;83;21430;-59
2021/03/10 00:32:21;;;;;;;43.30;10.63;;;;;;;-2.96;47.61;101205.92;1714882;83;21704;-58
2021/03/10 00:34:49;;;;;;;116.42;29.05;;;;;;;-2.96;47.41;101196.54;1714900;83;21172;-58
2021/03/10 00:37:17;;;;;;;55.88;14.53;;;;;;;-2.95;47.48;101199.13;1714814;82;21162;-58
2021/03/10 00:39:45;;;;;;;24.52;7.80;;;;;;;-2.98;47.63;101201.98;1714966;82;21163;-57
2021/03/10 00:42:13;;;;;;;13.48;4.83;;;;;;;-2.99;47.62;101200.27;1714850;83;21153;-58
2021/03/10 00:44:41;;;;;;;18.70;5.47;;;;;;;-3.03;47.62;101200.53;1714882;82;21415;-58
2021/03/10 00:47:08;;;;;;;13.15;4.72;;;;;;;-3.04;47.59;101197.47;1714973;83;21335;-58
2021/03/10 00:49:37;;;;;;;13.80;5.30;;;;;;;-3.02;47.66;101203.13;1714866;82;21454;-60
2021/03/10 00:52:05;;;;;;;13.93;6.28;;;;;;;-3.02;47.63;101201.78;1686985;82;21408;-58
2021/03/10 00:54:33;;;;;;;16.30;6.50;;;;;;;-3.03;47.69;101193.84;1714967;83;21367;-57
2021/03/10 00:57:00;;;;;;;18.77;6.80;;;;;;;-3.04;47.71;101205.52;1714864;82;21193;-58
2021/03/10 00:59:28;;;;;;;17.85;6.37;;;;;;;-3.10;47.89;101200.52;1714778;83;21158;-58
2021/03/10 01:01:55;;;;;;;21.25;7.50;;;;;;;-3.20;48.04;101199.72;1714820;83;21165;-57
2021/03/10 01:04:23;;;;;;;18.12;7.47;;;;;;;-3.24;48.32;101204.02;1714925;83;21408;-59
2021/03/10 01:06:50;;;;;;;19.12;8.80;;;;;;;-3.21;48.46;101203.36;1714852;82;21997;-58
2021/03/10 01:09:18;;;;;;;20.70;7.80;;;;;;;-3.20;48.61;101205.56;1714845;82;21309;-58
2021/03/10 01:11:46;;;;;;;22.07;8.50;;;;;;;-3.20;48.75;101202.87;1714871;83;21225;-58
2021/03/10 01:14:15;;;;;;;23.25;8.48;;;;;;;-3.22;48.83;101202.97;1714849;83;21409;-58
2021/03/10 01:16:42;;;;;;;22.15;7.80;;;;;;;-3.22;49.07;101199.42;1714819;83;21467;-58
2021/03/10 01:19:09;;;;;;;25.90;9.33;;;;;;;-3.26;48.96;101200.05;1719046;83;21180;-58
2021/03/10 01:21:37;;;;;;;23.12;7.92;;;;;;;-3.37;49.13;101197.13;1720519;82;21208;-60
2021/03/10 01:24:07;;;;;;;24.50;9.13;;;;;;;-3.45;49.50;101205.23;1720370;83;21463;-59
2021/03/10 01:26:36;;;;;;;22.82;9.60;;;;;;;-3.45;49.92;101203.89;1720583;83;21446;-58
2021/03/10 01:29:03;;;;;;;25.70;10.63;;;;;;;-3.40;50.10;101204.02;1720527;82;21227;-58
2021/03/10 01:31:30;;;;;;;25.72;9.90;;;;;;;-3.37;50.26;101195.80;1720774;83;21450;-58
2021/03/10 01:33:58;;;;;;;29.35;11.25;;;;;;;-3.31;50.35;101210.17;1720470;82;21480;-58
2021/03/10 01:36:25;;;;;;;31.93;11.63;;;;;;;-3.32;50.50;101203.09;1720506;83;21938;-59
2021/03/10 01:38:53;;;;;;;30.32;11.20;;;;;;;-3.32;50.78;101203.09;1720515;82;21849;-57
2021/03/10 01:41:20;;;;;;;30.62;10.40;;;;;;;-3.32;50.78;101203.09;1720392;83;21380;-58
2021/03/10 01:43:48;;;;;;;35.70;13.65;;;;;;;-3.34;50.92;101201.45;1720486;83;21185;-57
2021/03/10 01:46:15;;;;;;;50.60;17.52;;;;;;;-3.33;50.89;101205.38;1720480;83;21432;-58
2021/03/10 01:48:43;;;;;;;43.42;15.13;;;;;;;-3.30;50.96;101192.28;1720582;82;21180;-57
2021/03/10 01:51:11;;;;;;;35.38;14.23;;;;;;;-3.30;50.96;101192.28;1720525;83;21899;-59
2021/03/10 01:53:38;;;;;;;33.23;12.13;;;;;;;-3.28;50.96;101199.75;1720381;83;22013;-58
2021/03/10 01:56:06;;;;;;;35.30;12.50;;;;;;;-3.29;51.06;101204.73;1720408;83;21943;-57
2021/03/10 01:58:33;;;;;;;34.90;12.85;;;;;;;-3.33;51.16;101204.04;1720451;83;21173;-57
2021/03/10 02:01:01;;;;;;;39.63;12.28;;;;;;;-3.33;51.16;101204.04;1720497;82;21449;-57
2021/03/10 02:03:28;;;;;;;42.20;13.83;;;;;;;-3.35;51.30;101206.42;1720464;83;21169;-58
2021/03/10 02:05:56;;;;;;;36.88;14.03;;;;;;;-3.39;51.47;101205.73;1720602;83;21185;-59
2021/03/10 02:08:44;;;;;;;42.20;13.32;;;;;;;-3.42;51.96;101215.77;1720482;83;21447;-58
2021/03/10 02:11:26;;;;;;;42.55;14.93;;;;;;;-3.42;51.96;101215.77;1720491;83;21181;-57
2021/03/10 02:14:10;;;;;;;44.38;17.02;;;;;;;-3.47;52.07;101205.80;1720551;82;21392;-59
2021/03/10 02:16:52;;;;;;;42.88;15.72;;;;;;;-3.47;52.07;101205.80;1720533;83;21455;-58
2021/03/10 02:20:06;;;;;;;40.75;14.20;;;;;;;-3.45;51.97;101216.81;1720368;83;21225;-58
2021/03/10 02:23:14;;;;;;;44.83;14.90;;;;;;;-3.47;51.92;101211.16;1720579;82;21284;-56
2021/03/10 02:26:14;;;;;;;40.83;13.38;;;;;;;-3.61;52.21;101215.48;1720607;83;21189;-58
2021/03/10 02:28:42;;;;;;;44.42;15.80;;;;;;;-3.72;52.45;101214.37;1706938;83;21553;-57
2021/03/10 02:31:11;;;;;;;40.67;14.05;;;;;;;-3.79;52.79;101204.48;1720457;82;21374;-57
2021/03/10 02:33:39;;;;;;;42.10;14.23;;;;;;;-3.76;52.82;101212.81;1720463;83;21434;-58
2021/03/10 02:36:11;;;;;;;46.33;14.78;;;;;;;-3.78;52.82;101211.56;1720384;83;21991;-58
2021/03/10 02:38:41;;;;;;;51.73;16.25;;;;;;;-3.81;52.98;101206.38;1720008;83;21213;-58
2021/03/10 02:41:09;;;;;;;38.02;14.55;;;;;;;-3.82;53.26;101210.02;1720540;83;21157;-58
2021/03/10 02:43:38;;;;;;;41.25;14.10;;;;;;;-3.92;53.75;101202.08;1696432;83;21192;-58
2021/03/10 02:46:06;;;;;;;38.75;13.95;;;;;;;-3.92;53.75;101202.08;1696402;83;21224;-56
2021/03/10 02:48:33;;;;;;;35.43;12.68;;;;;;;-3.94;53.79;101206.65;1720432;83;21442;-59
2021/03/10 02:51:01;;;;;;;40.73;14.90;;;;;;;-3.92;53.82;101204.75;1720392;83;21149;-58
2021/03/10 02:53:31;;;;;;;36.08;14.33;;;;;;;-3.96;53.75;101201.38;1720459;83;21173;-58
2021/03/10 02:55:58;;;;;;;37.55;13.45;;;;;;;-3.96;53.75;101201.38;1696079;83;21188;-56
2021/03/10 02:58:25;;;;;;;35.95;13.25;;;;;;;-3.94;53.93;101196.80;1720335;82;21360;-56
2021/03/10 03:00:52;;;;;;;37.93;14.68;;;;;;;-3.88;53.99;101206.34;1720442;83;21486;-58
2021/03/10 03:03:20;;;;;;;32.00;12.95;;;;;;;-3.87;53.96;101204.91;1720564;83;21184;-58
2021/03/10 03:05:48;;;;;;;35.38;11.55;;;;;;;-3.82;53.77;101205.12;1720565;83;21142;-57
2021/03/10 03:08:15;;;;;;;30.27;11.50;;;;;;;-3.82;53.77;101205.12;1720541;83;21392;-58
2021/03/10 03:10:43;;;;;;;33.25;11.85;;;;;;;-3.86;53.44;101212.47;1720646;83;21157;-60
2021/03/10 03:13:13;;;;;;;29.15;10.90;;;;;;;-3.86;53.44;101212.47;1720515;83;21382;-59
2021/03/10 03:15:43;;;;;;;29.50;10.05;;;;;;;-3.87;53.51;101212.95;1720566;83;21474;-57
2021/03/10 03:18:11;;;;;;;33.42;12.30;;;;;;;-3.89;53.58;101214.84;1720404;83;21182;-58
2021/03/10 03:20:39;;;;;;;37.08;11.83;;;;;;;-3.85;53.62;101213.72;1720553;83;21229;-58
2021/03/10 03:23:06;;;;;;;31.52;11.73;;;;;;;-3.83;53.61;101206.94;1720499;83;21224;-58
2021/03/10 03:25:38;;;;;;;37.10;12.50;;;;;;;-3.85;53.72;101211.05;1720466;83;21303;-57
2021/03/10 03:28:09;;;;;;;29.45;11.63;;;;;;;-3.88;53.69;101215.70;1720532;83;21177;-57
2021/03/10 03:30:37;;;;;;;31.17;12.13;;;;;;;-3.94;53.76;101214.68;1696556;83;21192;-56
2021/03/10 03:33:11;;;;;;;32.17;12.88;;;;;;;-3.98;53.89;101211.31;1720507;83;21497;-58
2021/03/10 03:35:41;;;;;;;33.65;12.23;;;;;;;-3.99;54.03;101216.75;1720493;83;21262;-59
2021/03/10 03:38:08;;;;;;;32.65;11.70;;;;;;;-4.01;54.21;101222.19;1720416;83;21950;-58
2021/03/10 03:40:36;;;;;;;32.15;12.40;;;;;;;-4.07;54.59;101216.31;1720487;83;21451;-59
2021/03/10 03:43:11;;;;;;;28.62;11.00;;;;;;;-4.07;54.59;101216.31;1720433;82;21232;-59
2021/03/10 03:45:39;;;;;;;31.40;11.53;;;;;;;-4.22;54.84;101214.86;1720599;83;21277;-57
2021/03/10 03:48:07;;;;;;;40.03;12.88;;;;;;;-4.22;54.84;101214.86;1720490;83;21468;-57
2021/03/10 03:50:35;;;;;;;35.83;12.90;;;;;;;-4.25;55.01;101219.05;1720558;83;21475;-59
2021/03/10 03:53:02;;;;;;;32.88;11.83;;;;;;;-4.25;55.13;101219.05;1720590;83;21462;-58
2021/03/10 03:55:31;;;;;;;39.03;14.98;;;;;;;-4.22;55.19;101220.69;1720428;83;21208;-58
2021/03/10 03:57:58;;;;;;;36.98;13.72;;;;;;;-4.22;55.17;101218.88;1720454;82;21942;-57
2021/03/10 04:00:26;;;;;;;37.90;14.33;;;;;;;-4.16;55.15;101226.56;1720437;83;21999;-56
2021/03/10 04:02:53;;;;;;;43.25;15.50;;;;;;;-4.11;55.11;101222.30;1720506;83;21566;-58
2021/03/10 04:05:21;;;;;;;37.98;13.90;;;;;;;-4.07;55.04;101220.32;1720460;82;21486;-58
2021/03/10 04:07:53;;;;;;;38.10;14.03;;;;;;;-4.08;55.06;101219.94;1717302;83;22062;-58
2021/03/10 04:10:26;;;;;;;40.73;16.35;;;;;;;-4.09;55.02;101219.55;1720448;83;21209;-57
2021/03/10 04:12:54;;;;;;;47.65;14.53;;;;;;;-4.17;55.13;101218.15;1720517;82;21296;-57
2021/03/10 04:15:21;;;;;;;42.23;14.25;;;;;;;-4.22;55.21;101219.34;1720448;83;21372;-57
2021/03/10 04:17:49;;;;;;;49.05;17.35;;;;;;;-4.29;55.33;101216.62;1720506;82;21418;-58
2021/03/10 04:20:18;;;;;;;44.93;14.93;;;;;;;-4.34;55.51;101219.55;1720355;83;21287;-58
2021/03/10 04:22:46;;;;;;;42.58;15.93;;;;;;;-4.31;55.57;101223.39;1720492;83;21153;-58
2021/03/10 04:25:14;;;;;;;46.37;17.17;;;;;;;-4.24;55.53;101223.92;1720562;83;21173;-58
2021/03/10 04:27:41;;;;;;;50.52;16.93;;;;;;;-4.20;55.34;101223.67;1720488;82;21897;-57
2021/03/10 04:30:10;;;;;;;55.15;19.30;;;;;;;-4.17;55.24;101224.84;1720471;82;21185;-57
2021/03/10 04:32:38;;;;;;;67.27;26.05;;;;;;;-4.15;55.10;101220.27;1720624;83;21426;-56
2021/03/10 04:35:07;;;;;;;85.12;28.70;;;;;;;-4.15;55.09;101228.30;1720495;83;21208;-58
2021/03/10 04:37:34;;;;;;;72.97;25.23;;;;;;;-4.12;55.12;101235.77;1720585;83;21500;-57
2021/03/10 04:40:03;;;;;;;67.78;22.67;;;;;;;-4.09;55.10;101231.58;1720509;83;21387;-56
2021/03/10 04:42:30;;;;;;;69.35;24.57;;;;;;;-4.10;55.05;101229.86;1720460;83;21157;-56
2021/03/10 04:44:58;;;;;;;61.25;21.07;;;;;;;-4.16;55.15;101231.05;1720515;83;21357;-57
2021/03/10 04:47:25;;;;;;;64.95;22.13;;;;;;;-4.20;55.25;101235.71;1720428;83;21390;-58
2021/03/10 04:49:53;;;;;;;53.73;21.95;;;;;;;-4.25;55.43;101228.41;1720472;82;21182;-56
2021/03/10 04:52:22;;;;;;;64.35;20.52;;;;;;;-4.27;55.64;101227.63;1720535;83;21216;-57
2021/03/10 04:54:50;;;;;;;56.25;21.27;;;;;;;-4.30;55.79;101227.80;1720459;82;21253;-58
2021/03/10 04:57:17;;;;;;;55.67;19.70;;;;;;;-4.32;56.00;101235.03;1720380;82;21474;-57
2021/03/10 04:59:45;;;;;;;52.30;18.80;;;;;;;-4.28;56.13;101237.94;1720469;83;21531;-57
2021/03/10 05:02:13;;;;;;;50.88;17.27;;;;;;;-4.19;56.03;101234.77;1720468;83;21328;-57
2021/03/10 05:04:40;;;;;;;57.00;20.02;;;;;;;-4.12;55.85;101240.64;1720433;83;21192;-57
2021/03/10 05:07:08;;;;;;;49.15;18.90;;;;;;;-4.07;55.72;101237.24;1720397;82;21153;-56
2021/03/10 05:09:35;;;;;;;58.58;19.40;;;;;;;-4.02;55.62;101242.34;1720393;83;21412;-58
2021/03/10 05:12:03;;;;;;;54.80;18.32;;;;;;;-4.03;55.48;101244.63;1720485;83;21476;-58
2021/03/10 05:14:31;;;;;;;50.15;17.20;;;;;;;-4.02;55.51;101249.03;1720360;83;21400;-57
2021/03/10 05:16:59;;;;;;;49.27;17.50;;;;;;;-4.02;55.49;101245.88;1720377;82;21253;-56
2021/03/10 05:19:26;;;;;;;48.08;16.65;;;;;;;-4.01;55.51;101252.09;1720353;83;21303;-59
2021/03/10 05:21:54;;;;;;;50.00;16.67;;;;;;;-4.00;55.49;101250.67;1720467;83;21173;-58
2021/03/10 05:24:21;;;;;;;37.63;15.48;;;;;;;-3.94;55.46;101250.81;1720521;83;21287;-56
2021/03/10 05:26:49;;;;;;;28.00;12.03;;;;;;;-3.86;55.35;101252.16;1720501;83;21433;-57
2021/03/10 05:29:16;;;;;;;32.60;11.40;;;;;;;-3.76;55.07;101251.16;1720469;83;21224;-59
2021/03/10 05:31:44;;;;;;;31.17;11.12;;;;;;;-3.68;54.80;101248.06;1720541;83;21468;-58
2021/03/10 05:34:12;;;;;;;32.58;12.78;;;;;;;-3.59;54.52;101251.08;1692570;83;21146;-58
2021/03/10 05:36:39;;;;;;;25.72;10.40;;;;;;;-3.53;54.31;101257.43;1686014;85;21142;-56
2021/03/10 05:39:08;;;;;;;34.10;11.78;;;;;;;-3.48;54.20;101256.30;1685105;85;21201;-57
2021/03/10 05:41:35;;;;;;;26.93;10.13;;;;;;;-3.42;54.11;101261.31;1686108;85;21165;-57
2021/03/10 05:44:03;;;;;;;25.43;8.90;;;;;;;-3.39;53.90;101253.96;1686138;85;21443;-57
2021/03/10 05:46:31;;;;;;;21.15;8.23;;;;;;;-3.33;53.65;101256.30;1686175;85;21329;-58
2021/03/10 05:48:58;;;;;;;19.82;7.33;;;;;;;-3.24;53.25;101264.31;1685964;85;21205;-56
2021/03/10 05:51:26;;;;;;;19.98;7.08;;;;;;;-3.24;53.25;101264.31;1686123;85;21356;-57
2021/03/10 05:53:53;;;;;;;22.45;9.13;;;;;;;-3.15;52.75;101259.75;1686061;85;21423;-56
2021/03/10 05:56:20;;;;;;;22.25;8.75;;;;;;;-3.05;52.39;101267.65;1686069;83;21427;-59
2021/03/10 05:59:03;;;;;;;21.80;7.80;;;;;;;-2.99;52.14;101275.33;1686113;85;21475;-58
2021/03/10 06:01:31;;;;;;;29.95;11.93;;;;;;;-2.91;51.83;101270.38;1688676;84;21212;-57
2021/03/10 06:04:01;;;;;;;18.10;8.13;;;;;;;-2.82;51.51;101273.47;1691408;83;21878;-57
2021/03/10 06:06:38;;;;;;;17.98;7.62;;;;;;;-2.77;51.26;101277.61;1691495;84;21457;-57
2021/03/10 06:09:18;;;;;;;18.02;6.90;;;;;;;-2.72;50.99;101280.02;1691587;84;21173;-57
2021/03/10 06:11:58;;;;;;;19.20;8.25;;;;;;;-2.69;51.00;101283.86;1691541;84;21398;-57
2021/03/10 06:14:25;;;;;;;27.25;8.40;;;;;;;-2.65;50.68;101282.72;1691433;84;21169;-57
2021/03/10 06:17:10;;;;;;;16.73;6.25;;;;;;;-2.60;50.45;101286.89;1691447;84;21307;-59
2021/03/10 06:19:47;;;;;;;16.75;5.95;;;;;;;-2.52;50.32;101290.45;1689213;83;21308;-57
2021/03/10 06:22:15;;;;;;;24.37;11.43;;;;;;;-2.43;50.08;101288.55;1686417;84;21432;-56
2021/03/10 06:24:43;;;;;;;17.95;8.20;;;;;;;-2.34;49.87;101296.04;1689137;83;21442;-59
2021/03/10 06:27:10;;;;;;;24.92;6.65;;;;;;;-2.29;49.53;101296.62;1696594;83;21499;-58
2021/03/10 06:29:37;;;;;;;15.80;6.83;;;;;;;-2.28;49.27;101295.67;1689038;83;21256;-59
2021/03/10 06:32:09;;;;;;;27.52;8.70;;;;;;;-2.27;49.11;101297.87;1711291;83;21130;-57
2021/03/10 06:34:48;;;;;;;21.07;6.78;;;;;;;-2.28;49.15;101297.01;1718470;83;21209;-58
2021/03/10 06:37:29;;;;;;;23.38;7.10;;;;;;;-2.24;49.25;101297.20;1718072;83;21510;-56
2021/03/10 06:40:11;;;;;;;24.92;7.80;;;;;;;-2.14;49.18;101293.95;1717934;83;21292;-59
2021/03/10 06:42:38;;;;;;;24.30;6.67;;;;;;;-2.08;48.87;101297.13;1718219;82;21172;-59
2021/03/10 06:45:07;;;;;;;23.65;8.50;;;;;;;-2.03;48.76;101293.67;1718287;83;21161;-57
2021/03/10 06:47:39;;;;;;;25.82;9.10;;;;;;;-1.98;48.80;101290.22;1718223;82;21896;-58
2021/03/10 06:50:10;;;;;;;23.38;7.78;;;;;;;-1.89;48.75;101294.19;1718886;83;21268;-58
2021/03/10 06:52:38;;;;;;;26.77;8.35;;;;;;;-1.81;48.40;101294.56;1718530;83;21174;-57
2021/03/10 06:55:07;;;;;;;23.20;7.60;;;;;;;-1.77;48.23;101293.89;1695890;83;21324;-58
2021/03/10 06:57:44;;;;;;;24.25;6.87;;;;;;;-1.76;47.58;101294.27;1718453;83;21181;-57
2021/03/10 07:00:20;;;;;;;26.45;8.63;;;;;;;-1.77;47.48;101297.44;1718652;83;21975;-57
2021/03/10 07:02:48;;;;;;;21.93;7.87;;;;;;;-1.71;47.38;101298.39;1714897;82;21364;-58
2021/03/10 07:05:16;;;;;;;24.72;8.08;;;;;;;-1.67;47.43;101302.62;1718547;83;21384;-56
2021/03/10 07:07:43;;;;;;;28.02;8.88;;;;;;;-1.63;47.38;101298.77;1718534;83;21283;-57
2021/03/10 07:10:15;;;;;;;17.10;7.10;;;;;;;-1.58;47.24;101300.30;1717584;83;21893;-58
2021/03/10 07:12:42;;;;;;;21.95;6.80;;;;;;;-1.49;46.81;101299.71;1718584;83;21340;-59
2021/03/10 07:15:11;;;;;;;20.72;8.10;;;;;;;-1.43;46.52;101296.14;1718485;83;21228;-59
2021/03/10 07:17:40;;;;;;;18.57;6.85;;;;;;;-1.40;46.28;101293.26;1717313;83;21150;-57
2021/03/10 07:20:09;;;;;;;81.15;25.27;;;;;;;-1.35;46.07;101289.80;1716544;83;21382;-57
2021/03/10 07:22:59;;;;;;;22.93;8.53;;;;;;;-1.32;45.51;101287.39;1711049;82;21926;-58
2021/03/10 07:25:33;;;;;;;26.90;10.53;;;;;;;-1.30;45.16;101287.70;1707735;83;21126;-58
2021/03/10 07:28:03;;;;;;;19.70;8.25;;;;;;;-1.24;44.78;101290.95;1711018;83;21424;-59
2021/03/10 07:30:42;;;;;;;37.53;13.60;;;;;;;-1.20;44.55;101288.44;1711128;84;21173;-58
2021/03/10 07:33:19;;;;;;;26.25;9.60;;;;;;;-1.13;44.19;101283.91;1710609;83;21468;-58
2021/03/10 07:36:01;;;;;;;;;;;;;;;-1.07;43.33;101284.84;1713608;84;21408;-57
2021/03/10 07:38:38;;;;;;;12.65;6.05;;;;;;;-1.08;43.05;101284.94;1710981;82;20187;-58
2021/03/10 07:41:10;;;;;;;84.80;31.85;;;;;;;-1.06;43.21;101287.91;1711041;83;21166;-59
2021/03/10 07:43:45;;;;;;;27.58;11.50;;;;;;;-0.98;42.53;101290.95;1711214;84;21275;-59
2021/03/10 07:46:32;;;;;;;30.52;12.60;;;;;;;-0.93;42.33;101288.44;1710998;84;21389;-59
2021/03/10 07:49:01;;;;;;;11.22;5.40;;;;;;;-0.85;42.00;101286.09;1711213;83;21161;-59
2021/03/10 07:51:32;;;;;;;30.57;13.88;;;;;;;-0.79;41.42;101283.86;1710936;84;21202;-58
2021/03/10 07:54:01;;;;;;;9.25;4.10;;;;;;;-0.73;41.24;101282.58;1711020;83;21268;-57
2021/03/10 07:56:30;;;;;;;7.78;3.02;;;;;;;-0.65;41.03;101277.58;1711047;84;21150;-57
2021/03/10 07:59:13;;;;;;;9.05;2.58;;;;;;;-0.61;40.53;101273.70;1710998;84;21329;-56
2021/03/10 08:01:43;;;;;;;5.78;2.83;;;;;;;-0.56;40.38;101271.56;1711078;83;21433;-59
2021/03/10 08:04:13;;;;;;;12.58;4.05;;;;;;;-0.55;40.23;101271.94;1711068;82;21161;-59
2021/03/10 08:06:45;;;;;;;12.28;5.30;;;;;;;-0.56;40.04;101272.05;1710850;83;21190;-58
2021/03/10 08:09:15;;;;;;;12.53;5.40;;;;;;;-0.57;40.19;101273.02;1704938;83;21166;-58
2021/03/10 08:11:43;;;;;;;11.65;4.95;;;;;;;-0.58;40.35;101273.98;1686064;83;21339;-58
2021/03/10 08:14:13;;;;;;;9.15;4.28;;;;;;;-0.53;40.63;101273.19;1684496;85;21533;-57
2021/03/10 08:16:44;;;;;;;11.50;5.10;;;;;;;-0.44;40.52;101278.80;1684297;85;21453;-58
2021/03/10 08:19:12;;;;;;;7.72;3.35;;;;;;;-0.36;40.33;101281.81;1684241;83;21168;-58
2021/03/10 08:21:52;;;;;;;11.05;4.35;;;;;;;-0.35;40.27;101278.16;1689593;84;21177;-58
2021/03/10 08:24:22;;;;;;;9.00;2.80;;;;;;;-0.27;40.20;101276.77;1689783;83;21391;-58
2021/03/10 08:26:59;;;;;;;7.03;3.15;;;;;;;-0.23;39.81;101270.19;1695026;83;21297;-58
2021/03/10 08:29:27;;;;;;;12.90;2.98;;;;;;;-0.27;39.87;101268.20;1696965;83;21387;-58
2021/03/10 08:31:56;;;;;;;8.85;2.85;;;;;;;-0.24;40.04;101268.47;1695377;84;21147;-59
2021/03/10 08:34:36;;;;;;;9.88;2.80;;;;;;;-0.18;39.95;101265.34;1708295;84;21144;-59
2021/03/10 08:37:10;;;;;;;6.42;2.95;;;;;;;-0.14;40.10;101265.51;1708070;84;21813;-58
2021/03/10 08:39:45;;;;;;;12.65;5.55;;;;;;;-0.02;39.92;101263.30;1712082;83;21159;-58
2021/03/10 08:42:22;;;;;;;8.67;2.27;;;;;;;0.09;39.71;101263.42;1718416;83;21143;-58
2021/03/10 08:44:51;;;;;;;13.58;5.92;;;;;;;0.16;39.35;101263.36;1711398;83;21172;-59
2021/03/10 08:47:26;;;;;;;10.18;5.22;;;;;;;0.19;39.31;101263.63;1703354;83;21859;-58
2021/03/10 08:49:58;;;;;;;9.65;3.55;;;;;;;0.24;39.05;101260.98;1702910;84;21853;-58
2021/03/10 08:52:27;;;;;;;11.15;4.50;;;;;;;0.24;38.90;101256.08;1696864;83;21347;-61
2021/03/10 08:55:01;;;;;;;15.40;5.08;;;;;;;0.23;38.80;101256.56;1690156;83;21213;-58
2021/03/10 08:57:34;;;;;;;8.13;3.65;;;;;;;0.24;38.87;101258.28;1700210;83;21451;-59
2021/03/10 09:00:10;;;;;;;10.10;4.62;;;;;;;0.31;38.95;101259.56;1715232;83;21856;-60
2021/03/10 09:02:40;;;;;;;9.93;3.27;;;;;;;0.37;38.59;101254.21;1689383;83;22107;-59
2021/03/10 09:05:10;;;;;;;9.28;3.62;;;;;;;0.29;38.37;101245.34;1686186;84;21498;-57
2021/03/10 09:07:37;;;;;;;11.38;3.50;;;;;;;0.24;38.49;101246.16;1652993;86;21450;-61
2021/03/10 09:10:11;;;;;;;5.15;2.72;;;;;;;0.28;38.54;101246.80;1650156;86;21491;-62
2021/03/10 09:12:41;;;;;;;11.63;4.17;;;;;;;0.34;38.68;101245.48;1685213;84;21369;-61
2021/03/10 09:15:16;;;;;;;12.70;4.10;;;;;;;0.42;38.47;101243.09;1658639;85;21229;-62
2021/03/10 09:17:44;;;;;;;10.45;4.40;;;;;;;0.47;38.59;101242.27;1685979;84;21436;-64
2021/03/10 09:20:29;;;;;;;106.40;31.02;;;;;;;0.52;38.34;101238.75;1685908;84;21299;-63
2021/03/10 09:22:59;;;;;;;35.40;12.68;;;;;;;0.53;38.47;101239.12;1684745;83;21203;-62
2021/03/10 09:25:32;;;;;;;27.58;11.60;;;;;;;0.64;38.64;101231.10;1707458;83;21790;-63
2021/03/10 09:28:12;;;;;;;36.85;13.25;;;;;;;0.80;38.40;101234.91;1696764;83;21422;-61
2021/03/10 09:30:49;;;;;;;11.50;4.97;;;;;;;0.90;38.13;101235.45;1703644;83;21604;-63
2021/03/10 09:33:21;;;;;;;36.48;11.90;;;;;;;1.01;38.00;101237.33;1718069;83;21159;-67
2021/03/10 09:35:53;;;;;;;9.40;4.12;;;;;;;1.10;37.91;101234.42;1693551;83;21194;-63
2021/03/10 09:38:22;;;;;;;6.08;2.67;;;;;;;1.22;37.71;101229.44;1718164;82;21147;-62
2021/03/10 09:40:53;;;;;;;32.80;17.80;;;;;;;1.26;37.34;101233.63;1718071;83;21466;-62
2021/03/10 09:43:22;;;;;;;18.70;9.65;;;;;;;1.25;37.05;101234.11;1718175;83;21219;-60
2021/03/10 09:45:50;;;;;;;10.43;4.67;;;;;;;1.32;37.00;101237.73;1693324;83;21215;-60
2021/03/10 09:48:38;;;;;;;7.08;2.77;;;;;;;1.32;36.66;101236.38;1671395;83;21187;-58
2021/03/10 09:51:15;;;;;;;18.37;7.37;;;;;;;1.24;36.86;101231.05;1693332;83;21278;-63
2021/03/10 09:53:50;;;;;;;24.12;9.25;;;;;;;1.28;37.04;101233.02;1712504;83;21330;-65
2021/03/10 09:56:21;;;;;;;19.95;8.80;;;;;;;1.38;37.20;101232.72;1691299;83;21192;-62
2021/03/10 09:58:56;;;;;;;18.05;6.72;;;;;;;1.51;37.06;101225.88;1685749;85;21561;-66
2021/03/10 10:01:29;;;;;;;12.60;4.45;;;;;;;1.62;36.99;101230.44;1689581;83;21114;-68
2021/03/10 10:03:58;;;;;;;10.48;3.60;;;;;;;1.75;36.64;101232.05;1684355;83;21482;-66
2021/03/10 10:06:27;;;;;;;107.75;8.98;;;;;;;1.84;36.32;101225.92;1703860;83;21168;-63
2021/03/10 10:08:59;;;;;;;15.15;6.15;;;;;;;1.94;36.28;101231.95;1708579;82;21195;-66
2021/03/10 10:11:28;;;;;;;22.58;9.50;;;;;;;1.99;36.05;101227.93;1698662;83;21931;-68
2021/03/10 10:13:57;;;;;;;7.17;3.45;;;;;;;2.05;36.00;101228.80;1685940;84;21312;-62
2021/03/10 10:16:25;;;;;;;8.55;4.12;;;;;;;2.07;35.57;101233.58;1685901;85;21475;-63
2021/03/10 10:18:57;;;;;;;10.18;4.40;;;;;;;2.05;35.73;101234.20;1685885;85;21146;-63
2021/03/10 10:21:23;;;;;;;11.30;4.87;;;;;;;2.07;35.84;101228.17;1690520;83;22011;-67
2021/03/10 10:23:51;;;;;;;12.47;5.95;;;;;;;2.11;35.27;101220.19;1687329;83;21197;-66
2021/03/10 10:26:20;;;;;;;13.55;4.62;;;;;;;2.10;35.40;101223.02;1682074;84;21281;-62
2021/03/10 10:28:49;;;;;;;5.83;2.87;;;;;;;2.12;35.46;101219.70;1681780;84;21200;-70
2021/03/10 10:31:18;;;;;;;8.05;3.12;;;;;;;2.19;35.52;101215.03;1657125;85;21175;-62
2021/03/10 10:33:47;;;;;;;5.60;3.25;;;;;;;2.34;35.49;101212.92;1646758;87;21241;-62
2021/03/10 10:36:16;;;;;;;8.58;3.00;;;;;;;2.41;35.28;101214.62;1646730;87;21483;-62
2021/03/10 10:38:44;;;;;;;5.03;2.30;;;;;;;2.45;35.10;101207.98;1655737;85;21303;-63
2021/03/10 10:41:14;;;;;;;6.40;2.75;;;;;;;2.50;35.06;101210.68;1648597;85;21220;-62
2021/03/10 10:43:42;;;;;;;6.25;2.70;;;;;;;2.59;34.90;101214.97;1630662;88;21578;-62
2021/03/10 10:46:11;;;;;;;8.40;2.25;;;;;;;2.65;34.76;101205.88;1629328;86;21201;-62
2021/03/10 10:48:42;;;;;;;5.67;2.70;;;;;;;2.72;34.60;101208.44;1618337;88;21189;-64
2021/03/10 10:51:12;;;;;;;6.83;2.62;;;;;;;2.75;34.47;101195.16;1629434;87;21168;-63
2021/03/10 10:53:41;;;;;;;6.62;3.00;;;;;;;2.77;34.38;101204.86;1629293;86;21200;-63
2021/03/10 10:56:09;;;;;;;5.60;2.52;;;;;;;2.77;34.39;101198.09;1630041;86;21290;-63
2021/03/10 10:58:37;;;;;;;9.03;3.17;;;;;;;2.84;34.45;101189.83;1630040;86;21617;-64
2021/03/10 11:01:05;;;;;;;8.00;2.72;;;;;;;2.96;34.50;101189.78;1631969;86;21446;-65
2021/03/10 11:03:35;;;;;;;5.85;2.52;;;;;;;3.04;34.07;101190.00;1634593;86;21307;-64
2021/03/10 11:06:03;;;;;;;6.42;2.80;;;;;;;3.10;33.89;101178.15;1647359;85;21228;-64
2021/03/10 11:08:33;;;;;;;10.63;3.10;;;;;;;3.08;33.83;101181.98;1662022;85;21324;-62
2021/03/10 11:11:00;;;;;;;8.60;3.40;;;;;;;3.07;33.99;101177.05;1651201;86;22032;-66
2021/03/10 11:13:30;;;;;;;7.97;3.33;;;;;;;3.10;33.62;101175.44;1643599;86;21405;-67
2021/03/10 11:16:00;;;;;;;6.67;3.25;;;;;;;3.13;33.54;101179.23;1650455;85;21558;-67
2021/03/10 11:18:29;;;;;;;9.43;3.40;;;;;;;3.27;33.63;101175.87;1633480;86;21931;-66
2021/03/10 11:20:57;;;;;;;11.03;2.95;;;;;;;3.43;33.46;101168.14;1617238;88;21365;-64
2021/03/10 11:23:25;;;;;;;4.67;2.80;;;;;;;3.52;33.25;101170.55;1627033;86;21189;-67
2021/03/10 11:25:52;;;;;;;6.83;2.85;;;;;;;3.57;33.04;101166.45;1627393;88;21189;-66
2021/03/10 11:28:20;;;;;;;7.10;3.20;;;;;;;3.65;32.94;101168.48;1627059;86;21376;-67
2021/03/10 11:30:48;;;;;;;7.12;3.30;;;;;;;3.58;32.96;101164.10;1627553;87;21407;-67